Marshall, North Carolina
Current Conditions -  °F | °C
As of 12:54 PM on Thursday 27 Nov 2014 (Local Time) from KAVL Reporting Station
Few Clouds Few Clouds  
Wind Chill: 30°   Ceiling: Unl
Heat Index: 39°   Visibility: 10mi
Dew Point: 26°   Wind: 18mph
Humidity: 60%   Direction: 340°NNW
Pressure: 30.15"   Gusts: 29mph
Location:  35.8°N, 82.68°W
Report Text: KAVL 271754Z 34016G25KT 10SM FEW050 04/M03 A3015 RMK AO2 PK WND 34028/1730 SLP213 60000 T00391033 10050 20017 50013
Loading
Personal Weather Stations






























Interactive Weather Map New forecast layout! Learn more

10-Day Weather Forecast

Advertisements
Track Severe Weather on mobile